sensor_id;sensor_type;location;lat;lon;timestamp;P1;durP1;ratioP1;P2;durP2;ratioP2
44438;SDS011;30145;48.874;10.186;2024-03-02T00:00:28;25.80;;;16.00;;
44438;SDS011;30145;48.874;10.186;2024-03-02T00:02:55;25.50;;;15.83;;
44438;SDS011;30145;48.874;10.186;2024-03-02T00:05:22;23.60;;;14.77;;
44438;SDS011;30145;48.874;10.186;2024-03-02T00:07:53;29.67;;;17.53;;
44438;SDS011;30145;48.874;10.186;2024-03-02T00:10:22;22.47;;;15.37;;
44438;SDS011;30145;48.874;10.186;2024-03-02T00:12:55;25.97;;;14.77;;
44438;SDS011;30145;48.874;10.186;2024-03-02T00:18:03;22.37;;;13.93;;
44438;SDS011;30145;48.874;10.186;2024-03-02T00:20:31;20.57;;;13.90;;
44438;SDS011;30145;48.874;10.186;2024-03-02T00:23:02;24.83;;;15.00;;
44438;SDS011;30145;48.874;10.186;2024-03-02T00:25:38;23.37;;;14.33;;
44438;SDS011;30145;48.874;10.186;2024-03-02T00:28:16;20.00;;;12.27;;
44438;SDS011;30145;48.874;10.186;2024-03-02T00:30:52;22.47;;;13.83;;
44438;SDS011;30145;48.874;10.186;2024-03-02T00:33:24;19.33;;;13.40;;
44438;SDS011;30145;48.874;10.186;2024-03-02T00:35:53;21.17;;;14.03;;
44438;SDS011;30145;48.874;10.186;2024-03-02T00:38:20;20.13;;;13.73;;
44438;SDS011;30145;48.874;10.186;2024-03-02T00:40:48;24.77;;;14.17;;
44438;SDS011;30145;48.874;10.186;2024-03-02T00:46:12;21.63;;;14.47;;
44438;SDS011;30145;48.874;10.186;2024-03-02T00:48:47;19.67;;;13.60;;
44438;SDS011;30145;48.874;10.186;2024-03-02T00:51:15;22.37;;;13.90;;
44438;SDS011;30145;48.874;10.186;2024-03-02T00:53:42;20.73;;;13.60;;
44438;SDS011;30145;48.874;10.186;2024-03-02T00:56:10;19.20;;;12.90;;
44438;SDS011;30145;48.874;10.186;2024-03-02T00:58:39;21.33;;;13.40;;
44438;SDS011;30145;48.874;10.186;2024-03-02T01:01:06;19.63;;;12.77;;
44438;SDS011;30145;48.874;10.186;2024-03-02T01:03:34;20.13;;;13.93;;
44438;SDS011;30145;48.874;10.186;2024-03-02T01:06:01;21.47;;;14.13;;
44438;SDS011;30145;48.874;10.186;2024-03-02T01:08:28;20.63;;;13.60;;
44438;SDS011;30145;48.874;10.186;2024-03-02T01:10:57;22.10;;;14.03;;
44438;SDS011;30145;48.874;10.186;2024-03-02T01:13:24;20.23;;;14.10;;
44438;SDS011;30145;48.874;10.186;2024-03-02T01:15:51;21.73;;;15.30;;
44438;SDS011;30145;48.874;10.186;2024-03-02T01:18:18;22.40;;;15.10;;
44438;SDS011;30145;48.874;10.186;2024-03-02T01:20:45;23.93;;;14.17;;
44438;SDS011;30145;48.874;10.186;2024-03-02T01:23:12;23.00;;;15.27;;
44438;SDS011;30145;48.874;10.186;2024-03-02T01:25:39;21.43;;;15.03;;
44438;SDS011;30145;48.874;10.186;2024-03-02T01:28:06;24.67;;;14.33;;
44438;SDS011;30145;48.874;10.186;2024-03-02T01:30:34;21.43;;;14.00;;
44438;SDS011;30145;48.874;10.186;2024-03-02T01:33:01;23.73;;;15.20;;
44438;SDS011;30145;48.874;10.186;2024-03-02T01:35:28;24.23;;;15.77;;
44438;SDS011;30145;48.874;10.186;2024-03-02T01:37:55;22.27;;;14.83;;
44438;SDS011;30145;48.874;10.186;2024-03-02T01:40:22;22.10;;;14.80;;
44438;SDS011;30145;48.874;10.186;2024-03-02T01:42:53;20.70;;;14.53;;
44438;SDS011;30145;48.874;10.186;2024-03-02T01:45:26;21.77;;;15.00;;
44438;SDS011;30145;48.874;10.186;2024-03-02T01:47:53;24.33;;;14.60;;
44438;SDS011;30145;48.874;10.186;2024-03-02T01:50:31;20.93;;;14.00;;
44438;SDS011;30145;48.874;10.186;2024-03-02T01:52:59;22.67;;;14.83;;
44438;SDS011;30145;48.874;10.186;2024-03-02T01:55:26;25.07;;;13.33;;
44438;SDS011;30145;48.874;10.186;2024-03-02T01:57:55;22.10;;;14.83;;
44438;SDS011;30145;48.874;10.186;2024-03-02T02:00:23;20.00;;;13.43;;
44438;SDS011;30145;48.874;10.186;2024-03-02T02:02:53;22.07;;;14.43;;
44438;SDS011;30145;48.874;10.186;2024-03-02T02:05:20;19.70;;;13.60;;
44438;SDS011;30145;48.874;10.186;2024-03-02T02:07:47;19.47;;;14.10;;
44438;SDS011;30145;48.874;10.186;2024-03-02T02:10:14;23.20;;;15.43;;
44438;SDS011;30145;48.874;10.186;2024-03-02T02:12:41;18.20;;;12.97;;
44438;SDS011;30145;48.874;10.186;2024-03-02T02:15:21;22.07;;;14.07;;
44438;SDS011;30145;48.874;10.186;2024-03-02T02:17:49;18.57;;;12.87;;
44438;SDS011;30145;48.874;10.186;2024-03-02T02:20:16;22.47;;;14.67;;
44438;SDS011;30145;48.874;10.186;2024-03-02T02:23:02;18.33;;;13.57;;
44438;SDS011;30145;48.874;10.186;2024-03-02T02:25:32;22.03;;;14.00;;
44438;SDS011;30145;48.874;10.186;2024-03-02T02:28:00;22.77;;;13.53;;
44438;SDS011;30145;48.874;10.186;2024-03-02T02:30:30;21.77;;;13.43;;
44438;SDS011;30145;48.874;10.186;2024-03-02T02:32:59;20.20;;;14.80;;
44438;SDS011;30145;48.874;10.186;2024-03-02T02:35:27;22.63;;;15.03;;
44438;SDS011;30145;48.874;10.186;2024-03-02T02:37:56;22.40;;;14.17;;
44438;SDS011;30145;48.874;10.186;2024-03-02T02:40:25;26.07;;;15.13;;
44438;SDS011;30145;48.874;10.186;2024-03-02T02:42:52;22.27;;;14.63;;
44438;SDS011;30145;48.874;10.186;2024-03-02T02:45:21;22.53;;;15.07;;
44438;SDS011;30145;48.874;10.186;2024-03-02T02:47:48;22.47;;;14.93;;
44438;SDS011;30145;48.874;10.186;2024-03-02T02:50:15;23.77;;;14.77;;
44438;SDS011;30145;48.874;10.186;2024-03-02T02:52:42;21.80;;;14.77;;
44438;SDS011;30145;48.874;10.186;2024-03-02T02:55:10;24.53;;;15.07;;
44438;SDS011;30145;48.874;10.186;2024-03-02T02:57:39;24.90;;;14.77;;
44438;SDS011;30145;48.874;10.186;2024-03-02T03:00:09;24.13;;;15.63;;
44438;SDS011;30145;48.874;10.186;2024-03-02T03:02:41;27.37;;;16.90;;
44438;SDS011;30145;48.874;10.186;2024-03-02T03:05:09;22.93;;;15.50;;
44438;SDS011;30145;48.874;10.186;2024-03-02T03:07:40;28.00;;;15.73;;
44438;SDS011;30145;48.874;10.186;2024-03-02T03:10:09;26.70;;;16.33;;
44438;SDS011;30145;48.874;10.186;2024-03-02T03:12:36;23.60;;;15.30;;
44438;SDS011;30145;48.874;10.186;2024-03-02T03:15:03;24.90;;;15.33;;
44438;SDS011;30145;48.874;10.186;2024-03-02T03:17:35;25.77;;;14.97;;
44438;SDS011;30145;48.874;10.186;2024-03-02T03:20:03;22.87;;;14.20;;
44438;SDS011;30145;48.874;10.186;2024-03-02T03:22:32;23.13;;;13.70;;
44438;SDS011;30145;48.874;10.186;2024-03-02T03:24:59;23.10;;;14.63;;
44438;SDS011;30145;48.874;10.186;2024-03-02T03:27:26;24.23;;;15.20;;
44438;SDS011;30145;48.874;10.186;2024-03-02T03:29:53;23.67;;;14.33;;
44438;SDS011;30145;48.874;10.186;2024-03-02T03:32:21;23.07;;;14.93;;
44438;SDS011;30145;48.874;10.186;2024-03-02T03:34:48;26.20;;;15.80;;
44438;SDS011;30145;48.874;10.186;2024-03-02T03:37:15;22.03;;;15.37;;
44438;SDS011;30145;48.874;10.186;2024-03-02T03:39:42;23.53;;;14.43;;
44438;SDS011;30145;48.874;10.186;2024-03-02T03:42:09;26.43;;;14.60;;
44438;SDS011;30145;48.874;10.186;2024-03-02T03:44:36;25.03;;;15.33;;
44438;SDS011;30145;48.874;10.186;2024-03-02T03:47:03;20.80;;;13.70;;
44438;SDS011;30145;48.874;10.186;2024-03-02T03:49:30;23.90;;;14.53;;
44438;SDS011;30145;48.874;10.186;2024-03-02T03:51:58;20.67;;;13.83;;
44438;SDS011;30145;48.874;10.186;2024-03-02T03:54:26;23.40;;;14.17;;
44438;SDS011;30145;48.874;10.186;2024-03-02T03:56:54;22.97;;;14.70;;
44438;SDS011;30145;48.874;10.186;2024-03-02T03:59:21;24.70;;;15.07;;
44438;SDS011;30145;48.874;10.186;2024-03-02T04:01:48;28.00;;;16.53;;
44438;SDS011;30145;48.874;10.186;2024-03-02T04:04:15;27.53;;;15.50;;
44438;SDS011;30145;48.874;10.186;2024-03-02T04:06:42;24.70;;;15.50;;
44438;SDS011;30145;48.874;10.186;2024-03-02T04:11:41;21.90;;;14.40;;
44438;SDS011;30145;48.874;10.186;2024-03-02T04:14:09;23.47;;;14.23;;
44438;SDS011;30145;48.874;10.186;2024-03-02T04:16:36;20.53;;;13.90;;
44438;SDS011;30145;48.874;10.186;2024-03-02T04:19:03;23.10;;;13.57;;
44438;SDS011;30145;48.874;10.186;2024-03-02T04:21:30;23.87;;;14.63;;
44438;SDS011;30145;48.874;10.186;2024-03-02T04:23:58;22.00;;;14.30;;
44438;SDS011;30145;48.874;10.186;2024-03-02T04:26:25;24.03;;;14.73;;
44438;SDS011;30145;48.874;10.186;2024-03-02T04:28:53;22.47;;;14.10;;
44438;SDS011;30145;48.874;10.186;2024-03-02T04:31:21;26.30;;;15.93;;
44438;SDS011;30145;48.874;10.186;2024-03-02T04:33:48;25.57;;;14.83;;
44438;SDS011;30145;48.874;10.186;2024-03-02T04:36:15;25.63;;;15.70;;
44438;SDS011;30145;48.874;10.186;2024-03-02T04:38:42;23.77;;;14.60;;
44438;SDS011;30145;48.874;10.186;2024-03-02T04:41:09;26.40;;;14.73;;
44438;SDS011;30145;48.874;10.186;2024-03-02T04:43:36;25.00;;;15.17;;
44438;SDS011;30145;48.874;10.186;2024-03-02T04:46:03;22.77;;;14.80;;
44438;SDS011;30145;48.874;10.186;2024-03-02T04:48:30;22.07;;;14.67;;
44438;SDS011;30145;48.874;10.186;2024-03-02T04:50:57;25.87;;;15.87;;
44438;SDS011;30145;48.874;10.186;2024-03-02T04:53:24;24.10;;;15.23;;
44438;SDS011;30145;48.874;10.186;2024-03-02T04:55:51;25.50;;;16.30;;
44438;SDS011;30145;48.874;10.186;2024-03-02T04:58:36;23.50;;;13.97;;
44438;SDS011;30145;48.874;10.186;2024-03-02T05:01:03;22.87;;;13.97;;
44438;SDS011;30145;48.874;10.186;2024-03-02T05:03:31;24.03;;;15.37;;
44438;SDS011;30145;48.874;10.186;2024-03-02T05:06:01;25.60;;;14.80;;
44438;SDS011;30145;48.874;10.186;2024-03-02T05:08:28;28.30;;;16.03;;
44438;SDS011;30145;48.874;10.186;2024-03-02T05:10:56;25.43;;;15.57;;
44438;SDS011;30145;48.874;10.186;2024-03-02T05:13:43;23.33;;;14.03;;
44438;SDS011;30145;48.874;10.186;2024-03-02T05:16:10;28.07;;;15.43;;
44438;SDS011;30145;48.874;10.186;2024-03-02T05:18:40;26.47;;;15.27;;
44438;SDS011;30145;48.874;10.186;2024-03-02T05:21:08;23.07;;;14.73;;
44438;SDS011;30145;48.874;10.186;2024-03-02T05:23:36;26.73;;;15.97;;
44438;SDS011;30145;48.874;10.186;2024-03-02T05:26:07;23.97;;;15.40;;
44438;SDS011;30145;48.874;10.186;2024-03-02T05:28:36;26.13;;;16.33;;
44438;SDS011;30145;48.874;10.186;2024-03-02T05:31:04;22.43;;;15.00;;
44438;SDS011;30145;48.874;10.186;2024-03-02T05:33:33;21.53;;;14.47;;
44438;SDS011;30145;48.874;10.186;2024-03-02T05:36:01;23.53;;;13.80;;
44438;SDS011;30145;48.874;10.186;2024-03-02T05:38:29;23.17;;;13.97;;
44438;SDS011;30145;48.874;10.186;2024-03-02T05:40:57;21.07;;;13.17;;
44438;SDS011;30145;48.874;10.186;2024-03-02T05:43:24;23.03;;;14.13;;
44438;SDS011;30145;48.874;10.186;2024-03-02T05:45:51;19.60;;;12.90;;
44438;SDS011;30145;48.874;10.186;2024-03-02T05:48:19;27.60;;;19.00;;
44438;SDS011;30145;48.874;10.186;2024-03-02T05:50:46;24.20;;;14.60;;
44438;SDS011;30145;48.874;10.186;2024-03-02T05:53:15;21.23;;;13.07;;
44438;SDS011;30145;48.874;10.186;2024-03-02T05:55:42;27.43;;;16.93;;
44438;SDS011;30145;48.874;10.186;2024-03-02T05:58:12;20.67;;;13.47;;
44438;SDS011;30145;48.874;10.186;2024-03-02T06:00:54;22.17;;;14.10;;
44438;SDS011;30145;48.874;10.186;2024-03-02T06:03:22;20.37;;;13.17;;
44438;SDS011;30145;48.874;10.186;2024-03-02T06:05:50;24.80;;;14.37;;
44438;SDS011;30145;48.874;10.186;2024-03-02T06:08:19;20.57;;;13.17;;
44438;SDS011;30145;48.874;10.186;2024-03-02T06:10:47;24.30;;;15.07;;
44438;SDS011;30145;48.874;10.186;2024-03-02T06:13:18;25.90;;;14.03;;
44438;SDS011;30145;48.874;10.186;2024-03-02T06:15:45;21.83;;;13.87;;
44438;SDS011;30145;48.874;10.186;2024-03-02T06:18:14;22.77;;;13.40;;
44438;SDS011;30145;48.874;10.186;2024-03-02T06:20:42;24.73;;;14.10;;
44438;SDS011;30145;48.874;10.186;2024-03-02T06:23:09;22.07;;;14.13;;
44438;SDS011;30145;48.874;10.186;2024-03-02T06:25:37;19.33;;;12.47;;
44438;SDS011;30145;48.874;10.186;2024-03-02T06:28:06;19.13;;;12.53;;
44438;SDS011;30145;48.874;10.186;2024-03-02T06:30:34;26.43;;;15.43;;
44438;SDS011;30145;48.874;10.186;2024-03-02T06:33:02;25.30;;;13.47;;
44438;SDS011;30145;48.874;10.186;2024-03-02T06:35:30;21.97;;;13.37;;
44438;SDS011;30145;48.874;10.186;2024-03-02T06:37:57;22.73;;;12.23;;
44438;SDS011;30145;48.874;10.186;2024-03-02T06:40:24;21.73;;;12.63;;
44438;SDS011;30145;48.874;10.186;2024-03-02T06:42:51;18.63;;;11.63;;
44438;SDS011;30145;48.874;10.186;2024-03-02T06:45:19;23.70;;;13.80;;
44438;SDS011;30145;48.874;10.186;2024-03-02T06:47:46;20.73;;;13.00;;
44438;SDS011;30145;48.874;10.186;2024-03-02T06:50:14;21.77;;;14.00;;
44438;SDS011;30145;48.874;10.186;2024-03-02T06:52:42;22.63;;;13.60;;
44438;SDS011;30145;48.874;10.186;2024-03-02T06:55:10;21.17;;;12.83;;
44438;SDS011;30145;48.874;10.186;2024-03-02T06:57:38;24.50;;;14.13;;
44438;SDS011;30145;48.874;10.186;2024-03-02T07:00:07;21.90;;;12.53;;
44438;SDS011;30145;48.874;10.186;2024-03-02T07:02:35;25.30;;;13.57;;
44438;SDS011;30145;48.874;10.186;2024-03-02T07:05:03;22.30;;;13.57;;
44438;SDS011;30145;48.874;10.186;2024-03-02T07:07:31;22.70;;;13.37;;
44438;SDS011;30145;48.874;10.186;2024-03-02T07:09:58;22.10;;;13.53;;
44438;SDS011;30145;48.874;10.186;2024-03-02T07:12:26;20.80;;;12.37;;
44438;SDS011;30145;48.874;10.186;2024-03-02T07:14:53;23.80;;;13.23;;
44438;SDS011;30145;48.874;10.186;2024-03-02T07:17:31;21.17;;;12.67;;
44438;SDS011;30145;48.874;10.186;2024-03-02T07:19:59;22.07;;;13.27;;
44438;SDS011;30145;48.874;10.186;2024-03-02T07:22:26;23.07;;;13.40;;
44438;SDS011;30145;48.874;10.186;2024-03-02T07:24:54;24.20;;;13.47;;
44438;SDS011;30145;48.874;10.186;2024-03-02T07:27:21;19.67;;;13.67;;
44438;SDS011;30145;48.874;10.186;2024-03-02T07:29:49;25.33;;;13.13;;
44438;SDS011;30145;48.874;10.186;2024-03-02T07:32:17;21.47;;;12.87;;
44438;SDS011;30145;48.874;10.186;2024-03-02T07:34:44;21.57;;;13.67;;
44438;SDS011;30145;48.874;10.186;2024-03-02T07:37:11;19.50;;;12.07;;
44438;SDS011;30145;48.874;10.186;2024-03-02T07:39:39;20.87;;;12.67;;
44438;SDS011;30145;48.874;10.186;2024-03-02T07:42:07;19.03;;;13.23;;
44438;SDS011;30145;48.874;10.186;2024-03-02T07:44:34;21.57;;;12.40;;
44438;SDS011;30145;48.874;10.186;2024-03-02T07:47:01;20.27;;;13.43;;
44438;SDS011;30145;48.874;10.186;2024-03-02T07:49:29;20.60;;;12.37;;
44438;SDS011;30145;48.874;10.186;2024-03-02T07:51:56;18.43;;;12.17;;
44438;SDS011;30145;48.874;10.186;2024-03-02T07:54:23;20.23;;;12.87;;
44438;SDS011;30145;48.874;10.186;2024-03-02T07:56:50;23.17;;;13.40;;
44438;SDS011;30145;48.874;10.186;2024-03-02T07:59:17;19.73;;;12.67;;
44438;SDS011;30145;48.874;10.186;2024-03-02T08:01:44;18.17;;;12.17;;
44438;SDS011;30145;48.874;10.186;2024-03-02T08:04:11;19.97;;;12.47;;
44438;SDS011;30145;48.874;10.186;2024-03-02T08:06:39;18.77;;;12.13;;
44438;SDS011;30145;48.874;10.186;2024-03-02T08:09:06;17.73;;;11.83;;
44438;SDS011;30145;48.874;10.186;2024-03-02T08:11:36;17.40;;;11.93;;
44438;SDS011;30145;48.874;10.186;2024-03-02T08:14:04;18.23;;;11.97;;
44438;SDS011;30145;48.874;10.186;2024-03-02T08:16:31;17.37;;;11.70;;
44438;SDS011;30145;48.874;10.186;2024-03-02T08:18:58;17.30;;;11.40;;
44438;SDS011;30145;48.874;10.186;2024-03-02T08:21:25;15.80;;;11.10;;
44438;SDS011;30145;48.874;10.186;2024-03-02T08:23:53;14.13;;;10.60;;
44438;SDS011;30145;48.874;10.186;2024-03-02T08:26:20;16.33;;;11.30;;
44438;SDS011;30145;48.874;10.186;2024-03-02T08:28:48;15.00;;;10.87;;
44438;SDS011;30145;48.874;10.186;2024-03-02T08:31:15;16.93;;;10.87;;
44438;SDS011;30145;48.874;10.186;2024-03-02T08:33:42;16.83;;;11.17;;
44438;SDS011;30145;48.874;10.186;2024-03-02T08:36:10;16.13;;;10.77;;
44438;SDS011;30145;48.874;10.186;2024-03-02T08:38:37;16.40;;;11.23;;
44438;SDS011;30145;48.874;10.186;2024-03-02T08:41:04;15.43;;;11.23;;
44438;SDS011;30145;48.874;10.186;2024-03-02T08:43:31;17.67;;;10.87;;
44438;SDS011;30145;48.874;10.186;2024-03-02T08:45:58;13.77;;;10.33;;
44438;SDS011;30145;48.874;10.186;2024-03-02T08:48:26;17.90;;;11.73;;
44438;SDS011;30145;48.874;10.186;2024-03-02T08:50:56;17.00;;;11.30;;
44438;SDS011;30145;48.874;10.186;2024-03-02T08:53:23;17.23;;;10.90;;
44438;SDS011;30145;48.874;10.186;2024-03-02T08:55:50;14.03;;;10.20;;
44438;SDS011;30145;48.874;10.186;2024-03-02T08:58:18;14.47;;;10.37;;
44438;SDS011;30145;48.874;10.186;2024-03-02T09:00:47;13.40;;;9.70;;
44438;SDS011;30145;48.874;10.186;2024-03-02T09:03:14;12.53;;;9.27;;
44438;SDS011;30145;48.874;10.186;2024-03-02T09:05:41;11.30;;;8.10;;
44438;SDS011;30145;48.874;10.186;2024-03-02T09:08:09;9.97;;;8.03;;
44438;SDS011;30145;48.874;10.186;2024-03-02T09:10:36;11.50;;;8.73;;
44438;SDS011;30145;48.874;10.186;2024-03-02T09:13:05;12.47;;;8.80;;
44438;SDS011;30145;48.874;10.186;2024-03-02T09:15:32;12.57;;;8.73;;
44438;SDS011;30145;48.874;10.186;2024-03-02T09:18:01;11.17;;;8.30;;
44438;SDS011;30145;48.874;10.186;2024-03-02T09:20:28;10.87;;;7.93;;
44438;SDS011;30145;48.874;10.186;2024-03-02T09:22:55;9.93;;;7.43;;
44438;SDS011;30145;48.874;10.186;2024-03-02T09:25:22;10.73;;;7.30;;
44438;SDS011;30145;48.874;10.186;2024-03-02T09:27:49;11.07;;;8.10;;
44438;SDS011;30145;48.874;10.186;2024-03-02T09:30:16;8.37;;;6.70;;
44438;SDS011;30145;48.874;10.186;2024-03-02T09:32:43;10.27;;;7.83;;
44438;SDS011;30145;48.874;10.186;2024-03-02T09:35:11;8.20;;;6.83;;
44438;SDS011;30145;48.874;10.186;2024-03-02T09:37:39;7.50;;;6.30;;
44438;SDS011;30145;48.874;10.186;2024-03-02T09:40:06;8.07;;;6.17;;
44438;SDS011;30145;48.874;10.186;2024-03-02T09:42:33;8.73;;;6.33;;
44438;SDS011;30145;48.874;10.186;2024-03-02T09:45:02;9.73;;;6.57;;
44438;SDS011;30145;48.874;10.186;2024-03-02T09:47:29;11.40;;;6.47;;
44438;SDS011;30145;48.874;10.186;2024-03-02T09:49:56;9.80;;;6.17;;
44438;SDS011;30145;48.874;10.186;2024-03-02T09:52:24;6.47;;;5.23;;
44438;SDS011;30145;48.874;10.186;2024-03-02T09:54:51;8.13;;;5.47;;
44438;SDS011;30145;48.874;10.186;2024-03-02T09:57:18;7.90;;;5.60;;
44438;SDS011;30145;48.874;10.186;2024-03-02T09:59:45;7.07;;;4.97;;
44438;SDS011;30145;48.874;10.186;2024-03-02T10:02:12;5.90;;;4.57;;
44438;SDS011;30145;48.874;10.186;2024-03-02T10:04:39;5.57;;;3.93;;
44438;SDS011;30145;48.874;10.186;2024-03-02T10:07:12;5.07;;;4.00;;
44438;SDS011;30145;48.874;10.186;2024-03-02T10:09:41;4.90;;;3.50;;
44438;SDS011;30145;48.874;10.186;2024-03-02T10:12:09;6.50;;;3.97;;
44438;SDS011;30145;48.874;10.186;2024-03-02T10:14:38;4.53;;;3.90;;
44438;SDS011;30145;48.874;10.186;2024-03-02T10:17:06;5.50;;;3.70;;
44438;SDS011;30145;48.874;10.186;2024-03-02T10:19:34;4.80;;;3.47;;
44438;SDS011;30145;48.874;10.186;2024-03-02T10:22:05;5.87;;;3.77;;
44438;SDS011;30145;48.874;10.186;2024-03-02T10:24:35;3.93;;;3.27;;
44438;SDS011;30145;48.874;10.186;2024-03-02T10:27:06;5.03;;;3.60;;
44438;SDS011;30145;48.874;10.186;2024-03-02T10:29:39;5.30;;;3.90;;
44438;SDS011;30145;48.874;10.186;2024-03-02T10:32:10;5.13;;;3.47;;
44438;SDS011;30145;48.874;10.186;2024-03-02T10:34:41;4.90;;;3.53;;
44438;SDS011;30145;48.874;10.186;2024-03-02T10:37:10;8.33;;;4.13;;
44438;SDS011;30145;48.874;10.186;2024-03-02T10:39:38;5.77;;;4.10;;
44438;SDS011;30145;48.874;10.186;2024-03-02T10:42:06;5.03;;;4.30;;
44438;SDS011;30145;48.874;10.186;2024-03-02T10:44:34;7.20;;;4.87;;
44438;SDS011;30145;48.874;10.186;2024-03-02T10:47:03;7.50;;;5.10;;
44438;SDS011;30145;48.874;10.186;2024-03-02T10:49:31;5.77;;;4.47;;
44438;SDS011;30145;48.874;10.186;2024-03-02T10:51:59;6.40;;;4.40;;
44438;SDS011;30145;48.874;10.186;2024-03-02T10:54:27;6.37;;;4.70;;
44438;SDS011;30145;48.874;10.186;2024-03-02T10:57:03;7.93;;;5.77;;
44438;SDS011;30145;48.874;10.186;2024-03-02T10:59:35;5.03;;;3.87;;
44438;SDS011;30145;48.874;10.186;2024-03-02T11:02:04;5.50;;;3.93;;
44438;SDS011;30145;48.874;10.186;2024-03-02T11:04:34;4.93;;;3.77;;
44438;SDS011;30145;48.874;10.186;2024-03-02T11:07:06;3.37;;;2.63;;
44438;SDS011;30145;48.874;10.186;2024-03-02T11:09:35;4.20;;;3.23;;
44438;SDS011;30145;48.874;10.186;2024-03-02T11:14:56;3.40;;;2.70;;
44438;SDS011;30145;48.874;10.186;2024-03-02T11:17:26;3.37;;;2.97;;
44438;SDS011;30145;48.874;10.186;2024-03-02T11:19:55;3.30;;;1.80;;
44438;SDS011;30145;48.874;10.186;2024-03-02T11:22:23;2.43;;;1.97;;
44438;SDS011;30145;48.874;10.186;2024-03-02T11:24:52;1.73;;;1.57;;
44438;SDS011;30145;48.874;10.186;2024-03-02T11:28:09;2.33;;;1.33;;
44438;SDS011;30145;48.874;10.186;2024-03-02T11:33:00;1.67;;;1.57;;
44438;SDS011;30145;48.874;10.186;2024-03-02T11:35:35;2.73;;;1.43;;
44438;SDS011;30145;48.874;10.186;2024-03-02T11:38:08;1.50;;;1.40;;
44438;SDS011;30145;48.874;10.186;2024-03-02T11:40:38;1.90;;;1.67;;
44438;SDS011;30145;48.874;10.186;2024-03-02T11:43:17;2.20;;;1.90;;
44438;SDS011;30145;48.874;10.186;2024-03-02T11:45:45;1.67;;;1.50;;
44438;SDS011;30145;48.874;10.186;2024-03-02T11:50:49;2.60;;;1.97;;
44438;SDS011;30145;48.874;10.186;2024-03-02T11:53:17;2.50;;;2.20;;
44438;SDS011;30145;48.874;10.186;2024-03-02T11:55:46;2.87;;;2.40;;
44438;SDS011;30145;48.874;10.186;2024-03-02T11:58:18;3.30;;;2.70;;
44438;SDS011;30145;48.874;10.186;2024-03-02T12:00:51;4.70;;;2.63;;
44438;SDS011;30145;48.874;10.186;2024-03-02T12:03:18;3.20;;;2.90;;
44438;SDS011;30145;48.874;10.186;2024-03-02T12:05:49;4.77;;;3.43;;
44438;SDS011;30145;48.874;10.186;2024-03-02T12:08:20;2.90;;;2.60;;
44438;SDS011;30145;48.874;10.186;2024-03-02T12:10:58;3.27;;;2.97;;
44438;SDS011;30145;48.874;10.186;2024-03-02T12:13:28;2.50;;;2.20;;
44438;SDS011;30145;48.874;10.186;2024-03-02T12:15:57;3.70;;;2.10;;
44438;SDS011;30145;48.874;10.186;2024-03-02T12:18:24;2.37;;;2.10;;
44438;SDS011;30145;48.874;10.186;2024-03-02T12:20:52;2.30;;;2.00;;
44438;SDS011;30145;48.874;10.186;2024-03-02T12:23:24;3.27;;;2.40;;
44438;SDS011;30145;48.874;10.186;2024-03-02T12:25:52;2.67;;;2.00;;
44438;SDS011;30145;48.874;10.186;2024-03-02T12:28:19;6.20;;;2.23;;
44438;SDS011;30145;48.874;10.186;2024-03-02T12:30:47;4.37;;;2.70;;
44438;SDS011;30145;48.874;10.186;2024-03-02T12:33:16;3.63;;;2.40;;
44438;SDS011;30145;48.874;10.186;2024-03-02T12:35:43;2.77;;;2.13;;
44438;SDS011;30145;48.874;10.186;2024-03-02T12:38:10;2.30;;;2.10;;
44438;SDS011;30145;48.874;10.186;2024-03-02T12:40:37;2.70;;;2.40;;
44438;SDS011;30145;48.874;10.186;2024-03-02T12:43:05;3.13;;;2.17;;
44438;SDS011;30145;48.874;10.186;2024-03-02T12:45:34;2.30;;;2.10;;
44438;SDS011;30145;48.874;10.186;2024-03-02T12:48:01;5.40;;;4.57;;
44438;SDS011;30145;48.874;10.186;2024-03-02T12:50:30;4.80;;;3.13;;
44438;SDS011;30145;48.874;10.186;2024-03-02T12:52:57;3.20;;;2.40;;
44438;SDS011;30145;48.874;10.186;2024-03-02T12:55:24;2.50;;;2.30;;
44438;SDS011;30145;48.874;10.186;2024-03-02T12:57:52;4.07;;;1.90;;
44438;SDS011;30145;48.874;10.186;2024-03-02T13:00:20;3.00;;;2.70;;
44438;SDS011;30145;48.874;10.186;2024-03-02T13:02:48;3.10;;;2.80;;
44438;SDS011;30145;48.874;10.186;2024-03-02T13:05:17;4.23;;;3.30;;
44438;SDS011;30145;48.874;10.186;2024-03-02T13:07:46;4.97;;;3.33;;
44438;SDS011;30145;48.874;10.186;2024-03-02T13:10:16;2.97;;;2.63;;
44438;SDS011;30145;48.874;10.186;2024-03-02T13:12:43;3.83;;;3.00;;
44438;SDS011;30145;48.874;10.186;2024-03-02T13:15:11;3.67;;;3.17;;
44438;SDS011;30145;48.874;10.186;2024-03-02T13:17:39;3.50;;;3.20;;
44438;SDS011;30145;48.874;10.186;2024-03-02T13:20:06;5.23;;;3.13;;
44438;SDS011;30145;48.874;10.186;2024-03-02T13:22:42;3.80;;;3.40;;
44438;SDS011;30145;48.874;10.186;2024-03-02T13:25:10;4.37;;;3.43;;
44438;SDS011;30145;48.874;10.186;2024-03-02T13:27:37;3.90;;;3.20;;
44438;SDS011;30145;48.874;10.186;2024-03-02T13:30:05;3.60;;;3.30;;
44438;SDS011;30145;48.874;10.186;2024-03-02T13:32:32;4.83;;;3.13;;
44438;SDS011;30145;48.874;10.186;2024-03-02T13:34:59;3.67;;;3.20;;
44438;SDS011;30145;48.874;10.186;2024-03-02T13:37:26;6.30;;;3.67;;
44438;SDS011;30145;48.874;10.186;2024-03-02T13:39:53;4.67;;;3.17;;
44438;SDS011;30145;48.874;10.186;2024-03-02T13:42:20;3.80;;;3.40;;
44438;SDS011;30145;48.874;10.186;2024-03-02T13:44:48;4.80;;;3.77;;
44438;SDS011;30145;48.874;10.186;2024-03-02T13:47:17;4.30;;;3.90;;
44438;SDS011;30145;48.874;10.186;2024-03-02T13:49:44;5.47;;;4.97;;
44438;SDS011;30145;48.874;10.186;2024-03-02T13:52:13;4.03;;;3.50;;
44438;SDS011;30145;48.874;10.186;2024-03-02T13:54:43;4.00;;;3.70;;
44438;SDS011;30145;48.874;10.186;2024-03-02T13:57:10;4.53;;;3.77;;
44438;SDS011;30145;48.874;10.186;2024-03-02T13:59:38;4.17;;;3.60;;
44438;SDS011;30145;48.874;10.186;2024-03-02T14:02:06;4.83;;;3.80;;
44438;SDS011;30145;48.874;10.186;2024-03-02T14:04:34;5.30;;;3.57;;
44438;SDS011;30145;48.874;10.186;2024-03-02T14:07:02;4.77;;;3.53;;
44438;SDS011;30145;48.874;10.186;2024-03-02T14:09:29;4.43;;;4.03;;
44438;SDS011;30145;48.874;10.186;2024-03-02T14:11:56;3.67;;;3.37;;
44438;SDS011;30145;48.874;10.186;2024-03-02T14:14:23;3.80;;;3.50;;
44438;SDS011;30145;48.874;10.186;2024-03-02T14:16:52;6.50;;;3.93;;
44438;SDS011;30145;48.874;10.186;2024-03-02T14:19:22;4.80;;;3.83;;
44438;SDS011;30145;48.874;10.186;2024-03-02T14:21:49;4.40;;;3.90;;
44438;SDS011;30145;48.874;10.186;2024-03-02T14:24:16;5.47;;;4.77;;
44438;SDS011;30145;48.874;10.186;2024-03-02T14:26:43;4.53;;;3.63;;
44438;SDS011;30145;48.874;10.186;2024-03-02T14:29:11;6.90;;;4.47;;
44438;SDS011;30145;48.874;10.186;2024-03-02T14:31:39;5.60;;;5.10;;
44438;SDS011;30145;48.874;10.186;2024-03-02T14:34:08;5.03;;;4.47;;
44438;SDS011;30145;48.874;10.186;2024-03-02T14:36:35;5.37;;;4.87;;
44438;SDS011;30145;48.874;10.186;2024-03-02T14:39:03;6.67;;;5.30;;
44438;SDS011;30145;48.874;10.186;2024-03-02T14:41:30;8.43;;;6.63;;